Highlands Peak, California Weather observations

Data are for observation ending at time listed.
 Day   Time    Ave.   Ave.  Ave.  Vector   Max.   Stn.    Total    Solar   Ave.  
  of    of     Air    Rel.  Wind   Wind    Wind   Baro.  Precip.   Rad.    Soil  
Year   Day     Temp.  Hum.  Speed  Dir.    Gust   Pres.                    Temp. 
2017   (PST)    F      %     mph   deg.    mph     mb.     in.     W/m2     F   
------------------------------------------------------------------------------
  54    8:50   36.8    61    6.0   318     14.0   934.1    0.00     430    40.5
  54    9:00   36.9    61    6.2   306     12.6   934.2    0.00     464    40.6
  54    9:10   37.4    61    6.3   303     12.1   934.3    0.00     496    40.7
  54    9:20   37.6    61    8.0   315     14.2   934.3    0.00     534    40.7
  54    9:30   38.2    61    7.7   340     16.0   934.3    0.00     586    40.8
  54    9:40   38.9    60    5.1   341      9.6   934.2    0.00     587    40.9
  54    9:50   38.6    60    8.6   316     17.5   934.2    0.00     638    41.0
  54   10:00   39.1    60    8.6   326     14.8   934.4    0.00     717    41.2
  54   10:10   39.7    60    5.4   321      9.7   934.4    0.00     581    41.4
  54   10:20   40.4    60    5.0   294     10.4   934.4    0.00     688    41.5
  54   10:30   40.8    61    7.8   271     14.0   934.3    0.00     697    41.7
  54   10:40   39.7    68   10.2   274     16.7   934.3    0.00     732    42.0
  54   10:50   39.5    70    9.8   266     14.6   934.2    0.00     556    42.2
  54   11:00   40.5    67    8.6   272     14.6   934.2    0.00     773    42.5
  54   11:10   40.3    67    8.9   279     15.2   934.2    0.00     554    42.7
  54   11:20   40.2    68   12.1   273     19.3   934.0    0.00     596    43.0
  54   11:30   40.7    68   12.8   275     18.3   933.9    0.00     734    43.3
  54   11:40   41.0    69   12.6   280     20.4   933.9    0.00     755    43.6
  54   11:50   41.0    70   13.9   275     20.3   933.8    0.00     818    43.9
  54   12:00   40.7    71   15.9   276     22.2   933.7    0.00     876    44.2
  54   12:10   40.6    72   15.5   269     21.5   933.7    0.00     829    44.5
  54   12:20   40.7    72   15.7   269     22.7   933.6    0.00     935    44.8
  54   12:30   41.0    72   15.0   276     23.6   933.4    0.00     834    45.1
  54   12:40   40.2    73   15.2   273     21.7   933.4    0.00     633    45.4
  54   12:50   40.9    72   15.1   272     24.6   933.3    0.00     913    45.7
  54   13:00   41.1    71   16.1   270     24.4   933.3    0.00     872    46.0
  54   13:10   41.0    72   17.4   277     24.3   933.3    0.00     844    46.3
  54   13:20   40.6    73   17.4   275     24.8   933.3    0.00     449    46.6
  54   13:30   40.3    72   15.9   279     23.5   933.1    0.00     773    46.9
  54   13:40   40.4    72   18.3   278     26.4   933.0    0.00     593    47.1
  54   13:50   40.5    71   18.0   275     27.1   933.0    0.00     798    47.4
  54   14:00   40.9    71   18.2   279     27.7   932.9    0.00     810    47.6
  54   14:10   41.4    65   15.8   280     26.3   932.8    0.00     825    47.8
  54   14:20   41.3    63   17.5   277     27.5   932.8    0.00     794    48.0
  54   14:30   41.0    63   16.6   277     25.3   932.8    0.00     743    48.3
  54   14:40   41.7    64   14.2   274     23.5   932.8    0.00     701    48.5
  54   14:50   41.4    66   15.7   279     23.4   932.9    0.00     663    48.7
  54   15:00   41.4    66   16.1   281     24.8   932.9    0.00     623    49.0
  54   15:10   41.3    68   14.5   284     23.8   932.8    0.00     559    49.1
  54   15:20   41.3    68   14.1   283     21.3   932.8    0.00     545    49.3
  54   15:30   41.2    68   14.7   282     24.5   932.8    0.00     508    49.5
  54   15:40   40.9    66   14.8   285     23.3   932.7    0.00     469    49.6
  54   15:50   40.7    67   14.4   279     22.7   932.7    0.00     429    49.7
  54   16:00   40.4    70   15.4   286     24.0   932.6    0.00     387    49.8
  54   16:10   40.3    74   13.6   283     21.4   932.6    0.00     348    49.9
  54   16:20   40.5    72   13.2   285     20.7   932.6    0.00     309    49.9
  54   16:30   40.4    73   13.1   281     19.0   932.6    0.00     275    50.0
  54   16:40   40.2    74   12.3   282     20.8   932.6    0.00     241    49.9
  54   16:50   40.4    74   10.6   285     16.8   932.5    0.00     205    49.9
  54   17:00   40.0    74   12.8   280     19.4   932.6    0.00     174    49.9
  54   17:10   39.3    76   13.1   283     18.7   932.6    0.00     140    49.9
  54   17:20   38.7    76   13.2   280     19.0   932.5    0.00     109    49.9
  54   17:30   38.3    77   11.9   287     16.8   932.4    0.00      80    49.8
  54   17:40   37.9    77   11.7   283     16.7   932.6    0.00      53    49.7
  54   17:50   37.3    77   11.3   288     15.9   932.7    0.00      30    49.6
  54   18:00   36.4    76   10.2   292     14.5   932.8    0.00       9    49.5
  54   18:10   35.7    78    7.0   304     12.3   932.9    0.00       3    49.4
  54   18:20   35.1    79    4.3   328      6.9   932.9    0.00       1    49.2
  54   18:30   35.3    78    2.7   342      3.8   932.9    0.00       0    49.1
  54   18:40   35.5    77    2.5    15      7.3   932.9    0.00       0    49.0
  54   18:50   35.8    69    3.4    13      8.1   932.8    0.00       0    48.8
  54   19:00   35.9    66    2.1   160      8.8   932.9    0.00       0    48.5
  54   19:10   35.5    68    2.6   228      5.6   933.1    0.00       0    48.4
  54   19:20   34.7    70    2.9   320      5.2   933.2    0.00       0    48.3
  54   19:30   35.4    64    3.7   327      6.6   933.2    0.00       0    48.1
  54   19:40   35.2    63    5.4   358      8.3   933.3    0.00       0    47.9
  54   19:50   36.1    60    4.2   345      7.5   933.3    0.00       0    47.8
  54   20:00   35.5    63    6.9   334     10.4   933.3    0.00       0    47.6
  54   20:10   35.3    63    5.6   342      8.1   933.4    0.00       0    47.4
  54   20:20   35.5    63    3.4    14      5.5   933.5    0.00       0    47.3
  54   20:30   34.9    64    4.9   357      6.4   933.6    0.00       0    47.1
  54   20:40   34.8    65    5.2     3      7.2   933.6    0.00       0    46.9
  54   20:50   35.0    64    5.3     8      8.4   933.6    0.00       0    46.7
  54   21:00   35.0    63    5.9    25      8.5   933.6    0.00       0    46.6
  54   21:10   35.1    64    6.6    31      9.9   933.7    0.00       0    46.4
  54   21:20   35.2    64    7.8    48     11.0   933.8    0.00       0    46.2
  54   21:30   35.2    65    7.9    45     13.7   933.7    0.00       0    46.0
  54   21:40   35.4    63    6.6    47     13.2   933.8    0.00       0    45.8
  54   21:50   35.3    64    5.6    43     12.2   933.8    0.00       0    45.7
  54   22:00   35.3    64    5.1    52      9.5   933.9    0.00       0    45.4
  54   22:10   35.4    65    4.3    57     11.1   934.0    0.00       0    45.2
  54   22:20   35.4    65    6.8    35     11.6   934.0    0.00       0    45.1
  54   22:30   35.3    65    7.3    32     13.8   934.0    0.00       0    45.0
  54   22:40   35.3    65    9.2    35     14.8   933.9    0.00       0    44.8
  54   22:50   35.6    64    8.9    30     13.4   933.9    0.00       0    44.7
  54   23:00   35.5    64    8.5    25     14.2   933.9    0.00       0    44.5
  54   23:10   35.4    64    6.9   357     11.6   934.0    0.00       0    44.3
  54   23:20   35.5    63    7.1     1     12.5   934.0    0.00       0    44.2
  54   23:30   35.4    63    7.4    21      9.4   934.1    0.00       0    44.1
  54   23:40   35.3    63    6.2     8      8.8   934.4    0.00       0    44.0
  54   23:50   35.4    63    5.1   352      9.3   934.5    0.00       0    43.9
  55    0:00   34.9    65    5.2   357      7.3   934.5    0.00       0    43.8
  55    0:10   35.0    64    4.8   336      7.3   934.7    0.00       0    43.6
  55    0:20   35.2    65    4.1   322      8.3   934.8    0.00       0    43.6
  55    0:30   35.1    64    3.6     4      6.9   935.0    0.00       0    43.5
  55    0:40   34.8    61    5.6    39      8.9   935.0    0.00       0    43.4
  55    0:50   34.4    62    5.9    31     10.3   934.8    0.00       0    43.3
  55    1:00   34.8    60    6.3    23      9.1   934.5    0.00       0    43.2
  55    1:10   35.0    60    5.8    32      8.3   934.4    0.00       0    43.0
  55    1:20   34.4    62    5.3    55      8.7   934.2    0.00       0    43.0
  55    1:30   34.1    62    6.8    40     12.4   934.0    0.00       0    42.8
  55    1:40   34.4    61    5.1     6     10.7   934.0    0.00       0    42.7
  55    1:50   34.7    59    1.5   335      5.4   934.1    0.00       0    42.6
  55    2:00   34.7    60    1.9   207      4.2   934.2    0.00       0    42.5
  55    2:10   34.3    63    2.8   263      7.4   934.1    0.00       0    42.4
  55    2:20   33.5    69    7.0   300      9.8   934.2    0.00       0    42.3
  55    2:30   33.4    71    5.6   294      8.0   934.1    0.00       0    42.2
  55    2:40   33.3    68    3.6   316      5.3   933.8    0.00       0    42.2
  55    2:50   33.5    63    3.5   319      6.9   933.7    0.00       0    42.1
  55    3:00   34.6    53    4.9    16     15.8   933.4    0.00       0    41.9
  55    3:10   35.1    51    5.0    27     12.5   933.3    0.00       0    41.7
  55    3:20   35.2    51    7.1    26     19.7   933.2    0.00       0    41.7
  55    3:30   35.3    51    7.3    63     14.2   933.3    0.00       0    41.6
  55    3:40   35.3    51    5.4    70      9.1   933.4    0.00       0    41.5
  55    3:50   35.8    49    3.5    42      7.7   933.5    0.00       0    41.5
  55    4:00   35.4    49    6.0    65     11.3   933.5    0.00       0    41.4
  55    4:10   35.3    48    5.0    90      8.1   933.6    0.00       0    41.1
  55    4:20   35.1    48    4.5    76      6.6   933.6    0.00       0    41.2
  55    4:30   35.4    50    4.7    52      9.2   933.7    0.00       0    41.1
  55    4:40   35.6    50    5.1    57      9.2   933.7    0.00       0    41.0
  55    4:50   36.1    48    4.7    67      8.3   933.7    0.00       0    40.9
  55    5:00   35.9    48    3.7   104      5.6   933.8    0.00       0    40.7
  55    5:10   35.6    46    2.9   156      4.1   933.8    0.00       0    40.7
  55    5:20   35.7    48    2.6   179      3.2   933.8    0.00       0    40.7
  55    5:30   35.8    49    1.6   185      2.6   933.9    0.00       0    40.7
  55    5:40   35.9    49    0.5   209      1.1   934.0    0.00       0    40.7
  55    5:50   35.6    47    2.5    64      5.0   934.0    0.00       0    40.6
  55    6:00   35.1    45    4.3    62      5.6   934.0    0.00       0    40.6
  55    6:10   35.3    43    3.9    58      5.4   933.9    0.00       0    40.5
  55    6:20   34.8    42    4.4    69      5.9   933.9    0.00       0    40.4
  55    6:30   35.2    39    1.3    33      3.9   934.0    0.00       0    40.4
  55    6:40   36.7    39    2.5   227      4.4   934.2    0.00       2    40.2
  55    6:50   36.2    45    4.0   212      5.1   934.4    0.00       6    40.1
  55    7:00   35.2    48    3.1   138      4.5   934.4    0.00      10    40.0
  55    7:10   35.6    47    1.9   100      2.6   934.4    0.00      15    39.9
  55    7:20   35.6    44    2.1    54      4.2   934.5    0.00      19    40.0
  55    7:30   35.2    44    4.9    66      6.3   934.5    0.00      27    39.9
  55    7:40   35.8    44    4.8    56      6.5   934.6    0.00     176    39.9
  55    7:50   37.7    40    3.6    63      5.1   934.7    0.00     216    39.8
  55    8:00   39.6    37    1.0    78      2.1   935.0    0.00     254    39.7
  55    8:10   41.6    34    1.9    95      3.8   935.1    0.00     292    39.6
  55    8:20   42.4    35    1.9   102      3.3   935.1    0.00     330    39.6
  55    8:30   42.6    35    2.0   135      3.9   935.1    0.00     367    39.6
  55    8:40   41.0    37    2.6   236      3.7   935.2    0.00     403    39.6

Return to Highlands Peak graphs page.


Western Regional Climate Center,wrcc@dri.edu